This is the latest recevied weather packets stored in our database for station/object KB2FWP. If no packets are shown the sender has not sent any weather packets the latest 10 day(s).
| Time | Temp. | Humidity | Pressure | Rain* | Wind** | Luminosity | Snow |
|---|---|---|---|---|---|---|---|
| 1788001217 | 17.22° C | 80% | 1023.7 hPa | 0 mm | - | - | - |
| 1788000313 | 17.22° C | 80% | 1023.5 hPa | 0 mm | - | - | - |
| 1787999411 | 17.22° C | 80% | 1023.2 hPa | 0 mm | - | - | - |
| 1787998516 | 17.22° C | 80% | 1023 hPa | 0 mm | - | - | - |
| 1787997606 | 17.78° C | 80% | 1022.8 hPa | 0 mm | - | - | - |
| 1787996705 | 17.78° C | 79% | 1022.7 hPa | 0 mm | - | - | - |
| 1787995804 | 17.78° C | 78% | 1022.6 hPa | 0 mm | - | - | - |
| 1787994961 | 17.78° C | 78% | 1022.4 hPa | 0 mm | - | - | - |
| 1787994067 | 18.33° C | 77% | 1022 hPa | 0 mm | - | - | - |
| 1787993156 | 18.33° C | 76% | 1021.8 hPa | 0 mm | - | - | - |
| 1787992316 | 18.33° C | 76% | 1021.8 hPa | 0 mm | - | - | - |
| 1787991353 | 18.89° C | 74% | 1021.6 hPa | 0 mm | - | - | - |
| 1787990466 | 18.89° C | 73% | 1021.5 hPa | 0 mm | - | - | - |
| 1787989550 | 18.89° C | 73% | 1021.4 hPa | 0 mm | - | - | - |
| 1787988647 | 18.89° C | 73% | 1021.3 hPa | 0 mm | - | - | - |
| 1787987746 | 19.44° C | 74% | 1021.3 hPa | 0 mm | - | - | - |
| 1787986845 | 19.44° C | 75% | 1021.3 hPa | 0 mm | - | - | - |
| 1787985942 | 20° C | 76% | 1021.3 hPa | 0 mm | - | - | - |
| 1787985064 | 20° C | 78% | 1021.2 hPa | 0 mm | - | - | - |
| 1787984139 | 20.56° C | 78% | 1021.1 hPa | 0 mm | - | - | - |
| 1787983234 | 20.56° C | 77% | 1020.9 hPa | 0 mm | - | - | - |
| 1787982333 | 21.11° C | 77% | 1020.8 hPa | 0 mm | - | - | - |
| 1787981438 | 21.11° C | 77% | 1020.8 hPa | 0 mm | - | - | - |
| 1787980528 | 21.67° C | 80% | 1020.8 hPa | 0 mm | - | - | - |
| 1787979624 | 21.67° C | 79% | 1020.5 hPa | 0 mm | - | - | - |
* Rain latest hour (hover to see other rain measurements)
** Current wind speed in m/s (hover to see current wind gust speed)